Time;durP1;ratioP1;P1;durP2;ratioP2;P2;SDS_P1;SDS_P2;PMS_P1;PMS_P2;Temp;Humidity;BMP_temperature;BMP_pressure;BME280_temperature;BME280_humidity;BME280_pressure;Samples;Min_cycle;Max_cycle;Signal;HPM_P1;HPM_P2
2022/12/30 00:03:05;;;;;;;4.07;1.17;;;;;;;;;;10453485;28;20454;-62
2022/12/30 00:08:45;;;;;;;3.70;1.13;;;;;;;;;;10454101;28;20212;-62
2022/12/30 00:34:43;;;;;;;2.97;1.20;;;;;;;;;;10452234;28;20651;-63
2022/12/30 00:39:43;;;;;;;2.57;1.17;;;;;;;;;;10452248;28;20219;-63
2022/12/30 00:44:43;;;;;;;4.23;1.17;;;;;;;;;;10452669;28;20203;-63
2022/12/30 01:00:22;;;;;;;6.27;1.40;;;;;;;;;;10452654;28;20215;-62
2022/12/30 01:05:22;;;;;;;4.47;1.60;;;;;;;;;;10451554;28;20211;-62
2022/12/30 01:10:22;;;;;;;4.20;1.40;;;;;;;;;;10451569;28;20195;-62
2022/12/30 01:15:22;;;;;;;5.17;1.20;;;;;;;;;;10451569;28;20269;-61
2022/12/30 01:20:23;;;;;;;6.47;1.50;;;;;;;;;;10451037;28;20302;-62
2022/12/30 01:25:23;;;;;;;9.07;1.50;;;;;;;;;;10452134;28;20552;-63
2022/12/30 01:30:23;;;;;;;2.80;1.37;;;;;;;;;;10450989;28;20222;-60
2022/12/30 01:35:23;;;;;;;3.07;1.47;;;;;;;;;;10449814;28;20534;-60
2022/12/30 01:40:23;;;;;;;5.57;1.77;;;;;;;;;;10450398;28;20314;-61
2022/12/30 01:45:26;;;;;;;3.17;1.30;;;;;;;;;;10449978;28;20295;-62
2022/12/30 01:50:28;;;;;;;7.13;1.60;;;;;;;;;;10450795;28;20192;-62
2022/12/30 01:55:31;;;;;;;3.83;1.17;;;;;;;;;;10450151;28;20208;-62
2022/12/30 02:00:31;;;;;;;6.67;1.70;;;;;;;;;;10448817;28;20219;-61
2022/12/30 02:05:35;;;;;;;5.87;1.57;;;;;;;;;;10448723;28;20705;-62
2022/12/30 02:10:37;;;;;;;5.53;1.40;;;;;;;;;;10449795;28;20192;-63
2022/12/30 02:15:47;;;;;;;2.97;1.43;;;;;;;;;;10448599;28;20703;-62
2022/12/30 02:21:04;;;;;;;4.80;1.40;;;;;;;;;;10449390;28;20748;-62
2022/12/30 02:26:23;;;;;;;5.70;1.63;;;;;;;;;;10448548;28;20207;-62
2022/12/30 02:31:29;;;;;;;8.77;1.50;;;;;;;;;;10448529;28;20188;-61
2022/12/30 02:36:32;;;;;;;4.27;1.23;;;;;;;;;;10441125;23;20297;-63
2022/12/30 02:47:00;;;;;;;4.73;1.47;;;;;;;;;;10406565;28;20234;-66
2022/12/30 02:52:18;;;;;;;4.87;1.40;;;;;;;;;;10407544;28;20660;-64
2022/12/30 02:57:22;;;;;;;7.63;1.50;;;;;;;;;;10405996;28;20208;-64
2022/12/30 03:08:02;;;;;;;3.80;1.50;;;;;;;;;;10385771;28;20219;-65
2022/12/30 03:13:11;;;;;;;5.57;1.43;;;;;;;;;;10405862;28;20608;-65
2022/12/30 03:18:12;;;;;;;7.13;1.67;;;;;;;;;;10406459;28;20208;-64
2022/12/30 03:28:33;;;;;;;7.57;1.60;;;;;;;;;;10406115;28;20243;-63
2022/12/30 03:33:34;;;;;;;8.17;1.50;;;;;;;;;;10406484;28;20571;-64
2022/12/30 03:38:36;;;;;;;5.10;1.50;;;;;;;;;;10413348;28;20235;-64
2022/12/30 03:43:37;;;;;;;8.17;1.73;;;;;;;;;;10413841;28;20191;-63
2022/12/30 03:48:37;;;;;;;4.30;1.40;;;;;;;;;;10414386;28;20203;-66
2022/12/30 03:53:37;;;;;;;7.03;1.57;;;;;;;;;;10413684;28;20203;-65
2022/12/30 03:58:37;;;;;;;9.77;1.60;;;;;;;;;;10413440;28;20224;-64
2022/12/30 04:03:38;;;;;;;5.20;1.43;;;;;;;;;;10395205;28;20200;-65
2022/12/30 04:08:38;;;;;;;6.43;1.97;;;;;;;;;;10366996;28;20209;-64
2022/12/30 04:13:38;;;;;;;4.70;1.30;;;;;;;;;;10363881;28;20193;-66
2022/12/30 04:18:38;;;;;;;8.33;1.43;;;;;;;;;;10365366;28;20217;-66
2022/12/30 04:23:39;;;;;;;7.47;2.00;;;;;;;;;;10365297;28;20185;-66
2022/12/30 04:28:39;;;;;;;5.77;1.60;;;;;;;;;;10364303;28;21036;-65
2022/12/30 04:33:39;;;;;;;3.80;1.50;;;;;;;;;;10364906;28;20451;-66
2022/12/30 04:38:39;;;;;;;6.30;1.40;;;;;;;;;;10363021;28;20275;-66
2022/12/30 04:43:39;;;;;;;10.47;2.17;;;;;;;;;;10363597;28;20185;-65
2022/12/30 04:48:40;;;;;;;4.80;1.23;;;;;;;;;;10363425;28;20332;-66
2022/12/30 04:53:40;;;;;;;3.67;1.53;;;;;;;;;;10363817;28;20189;-66
2022/12/30 04:58:40;;;;;;;6.07;1.40;;;;;;;;;;10363218;28;20237;-67
2022/12/30 05:03:40;;;;;;;7.17;1.50;;;;;;;;;;10367793;28;20196;-66
2022/12/30 05:08:40;;;;;;;6.40;1.57;;;;;;;;;;10370816;28;20243;-65
2022/12/30 05:13:41;;;;;;;4.33;1.67;;;;;;;;;;10369478;28;20189;-64
2022/12/30 05:18:41;;;;;;;4.83;1.60;;;;;;;;;;10370529;28;20869;-64
2022/12/30 05:29:00;;;;;;;4.97;1.80;;;;;;;;;;10369429;28;20205;-66
2022/12/30 05:34:00;;;;;;;3.63;1.40;;;;;;;;;;10369105;28;20185;-66
2022/12/30 05:39:00;;;;;;;5.60;1.80;;;;;;;;;;10368962;28;20237;-66
2022/12/30 05:44:00;;;;;;;4.30;1.40;;;;;;;;;;10368763;28;20188;-67
2022/12/30 05:49:01;;;;;;;6.23;1.40;;;;;;;;;;10369054;28;20201;-64
2022/12/30 05:54:01;;;;;;;4.90;1.70;;;;;;;;;;10368053;28;20299;-66
2022/12/30 05:59:01;;;;;;;10.13;1.87;;;;;;;;;;10367486;28;20483;-64
2022/12/30 06:04:01;;;;;;;4.70;1.40;;;;;;;;;;10367709;28;20223;-67
2022/12/30 06:09:01;;;;;;;12.30;1.80;;;;;;;;;;10368010;28;20241;-65
2022/12/30 06:14:02;;;;;;;8.30;1.40;;;;;;;;;;10367438;28;20248;-65
2022/12/30 06:19:02;;;;;;;9.03;1.83;;;;;;;;;;10367659;28;20571;-65
2022/12/30 06:24:02;;;;;;;10.10;1.90;;;;;;;;;;10367524;28;20436;-66
2022/12/30 06:29:03;;;;;;;5.17;1.30;;;;;;;;;;10366096;28;20209;-64
2022/12/30 06:34:03;;;;;;;4.33;1.30;;;;;;;;;;10367256;28;20189;-65
2022/12/30 06:39:03;;;;;;;8.30;1.60;;;;;;;;;;10366070;28;20319;-65
2022/12/30 06:44:03;;;;;;;8.60;1.23;;;;;;;;;;10366841;28;20643;-65
2022/12/30 06:49:03;;;;;;;11.10;2.05;;;;;;;;;;10367282;28;20703;-64
2022/12/30 06:54:04;;;;;;;7.17;1.53;;;;;;;;;;10365418;28;20745;-63
2022/12/30 06:59:05;;;;;;;4.17;1.40;;;;;;;;;;10367005;28;20217;-66
2022/12/30 07:04:05;;;;;;;2.67;1.40;;;;;;;;;;10365660;28;20189;-65
2022/12/30 07:09:05;;;;;;;8.30;1.37;;;;;;;;;;10365644;28;20355;-65
2022/12/30 07:14:05;;;;;;;3.07;1.27;;;;;;;;;;10365900;28;20220;-66
2022/12/30 07:19:05;;;;;;;10.50;4.53;;;;;;;;;;10365385;28;20270;-65
2022/12/30 07:24:06;;;;;;;20.00;7.63;;;;;;;;;;10364435;28;20181;-66
2022/12/30 07:29:06;;;;;;;12.33;3.70;;;;;;;;;;10365269;28;20684;-66
2022/12/30 07:34:06;;;;;;;32.73;16.57;;;;;;;;;;10365425;28;20189;-66
2022/12/30 07:39:07;;;;;;;7.97;3.27;;;;;;;;;;10365712;28;20236;-66
2022/12/30 07:44:07;;;;;;;5.27;2.80;;;;;;;;;;10365219;28;20220;-64
2022/12/30 07:49:07;;;;;;;10.60;4.03;;;;;;;;;;10365433;28;20250;-66
2022/12/30 07:54:07;;;;;;;7.97;3.73;;;;;;;;;;10364701;28;20193;-65
2022/12/30 07:59:09;;;;;;;10.93;2.40;;;;;;;;;;10350754;28;20731;-66
2022/12/30 08:04:09;;;;;;;4.73;2.47;;;;;;;;;;10360613;28;20209;-65
2022/12/30 08:09:10;;;;;;;7.20;1.80;;;;;;;;;;10362197;28;20746;-64
2022/12/30 08:14:10;;;;;;;7.87;2.03;;;;;;;;;;10361724;28;20197;-66
2022/12/30 08:19:10;;;;;;;6.93;2.00;;;;;;;;;;10362056;28;20601;-64
2022/12/30 08:24:10;;;;;;;4.37;1.90;;;;;;;;;;10368655;28;20185;-66
2022/12/30 08:29:10;;;;;;;5.80;1.90;;;;;;;;;;10367680;28;20356;-65
2022/12/30 08:34:11;;;;;;;7.57;2.10;;;;;;;;;;10365893;28;20891;-65
2022/12/30 08:39:11;;;;;;;12.50;2.43;;;;;;;;;;10437382;23;20244;-61
2022/12/30 08:44:13;;;;;;;6.23;2.10;;;;;;;;;;10443107;28;20193;-62
2022/12/30 08:49:14;;;;;;;8.03;2.43;;;;;;;;;;10406919;28;20240;-63
2022/12/30 08:54:14;;;;;;;6.03;2.00;;;;;;;;;;10410185;28;20205;-62
2022/12/30 08:59:15;;;;;;;7.80;1.70;;;;;;;;;;10406338;28;20224;-63
2022/12/30 09:04:17;;;;;;;5.80;2.00;;;;;;;;;;10407764;28;20189;-62
2022/12/30 09:09:17;;;;;;;10.97;1.90;;;;;;;;;;10409053;28;20311;-64
2022/12/30 09:14:17;;;;;;;6.80;2.10;;;;;;;;;;10407639;28;20203;-64
2022/12/30 09:19:17;;;;;;;13.77;2.43;;;;;;;;;;10407065;28;20588;-60
2022/12/30 09:24:18;;;;;;;5.20;1.93;;;;;;;;;;10408162;28;20378;-62
2022/12/30 09:29:18;;;;;;;6.27;1.60;;;;;;;;;;10407063;28;20222;-63
2022/12/30 09:34:18;;;;;;;7.80;2.40;;;;;;;;;;10404437;28;20687;-64
2022/12/30 09:39:30;;;;;;;5.90;1.97;;;;;;;;;;10408225;28;20237;-63
2022/12/30 09:44:53;;;;;;;7.20;2.00;;;;;;;;;;10405712;28;20539;-62
2022/12/30 09:50:01;;;;;;;12.47;2.60;;;;;;;;;;10406919;28;20208;-63
2022/12/30 09:55:05;;;;;;;11.33;6.67;;;;;;;;;;10406343;28;20284;-64
2022/12/30 10:00:07;;;;;;;6.10;2.10;;;;;;;;;;10407096;28;20305;-62
2022/12/30 10:05:12;;;;;;;6.00;1.57;;;;;;;;;;10403585;28;20193;-64
2022/12/30 10:10:22;;;;;;;4.20;1.57;;;;;;;;;;10406111;28;20967;-58
2022/12/30 10:15:31;;;;;;;7.03;1.53;;;;;;;;;;10405919;28;20291;-63
2022/12/30 10:20:41;;;;;;;6.97;1.30;;;;;;;;;;10405222;28;20228;-64
2022/12/30 10:25:51;;;;;;;6.23;1.60;;;;;;;;;;10404585;28;20240;-64
2022/12/30 10:30:52;;;;;;;9.33;1.70;;;;;;;;;;10405891;28;20212;-64
2022/12/30 10:36:11;;;;;;;6.10;1.70;;;;;;;;;;10401982;28;20189;-62
2022/12/30 10:41:24;;;;;;;5.20;1.47;;;;;;;;;;10381616;28;20266;-60
2022/12/30 10:46:33;;;;;;;5.60;1.73;;;;;;;;;;10404310;28;20235;-64
2022/12/30 10:51:33;;;;;;;7.10;1.70;;;;;;;;;;10405259;28;20268;-63
2022/12/30 10:56:34;;;;;;;5.70;1.30;;;;;;;;;;10403596;28;20208;-63
2022/12/30 11:01:35;;;;;;;4.80;1.53;;;;;;;;;;10397785;28;20212;-63
2022/12/30 11:06:36;;;;;;;3.70;1.60;;;;;;;;;;10399049;28;20220;-65
2022/12/30 11:17:21;;;;;;;19.77;8.50;;;;;;;;;;10402599;28;20243;-63
2022/12/30 11:22:22;;;;;;;9.37;2.73;;;;;;;;;;10403527;28;20216;-64
2022/12/30 11:27:27;;;;;;;3.60;2.87;;;;;;;;;;10401854;28;20746;-64
2022/12/30 11:32:27;;;;;;;35.50;22.00;;;;;;;;;;10401856;28;20593;-63
2022/12/30 11:37:35;;;;;;;15.00;10.73;;;;;;;;;;10403196;28;20259;-64
2022/12/30 11:42:35;;;;;;;9.57;4.93;;;;;;;;;;10400426;28;20932;-62
2022/12/30 11:47:35;;;;;;;16.80;6.57;;;;;;;;;;10398236;28;20250;-56
2022/12/30 11:52:35;;;;;;;6.80;2.93;;;;;;;;;;10362476;28;20193;-54
2022/12/30 11:57:42;;;;;;;3.63;1.97;;;;;;;;;;10379765;28;20218;-60
2022/12/30 12:03:02;;;;;;;4.93;1.73;;;;;;;;;;10403473;28;20217;-61
2022/12/30 12:08:07;;;;;;;12.43;2.03;;;;;;;;;;10377434;28;20241;-60
2022/12/30 12:13:30;;;;;;;3.03;1.17;;;;;;;;;;10392055;28;20182;-62
2022/12/30 12:18:37;;;;;;;11.10;2.00;;;;;;;;;;10380280;28;20299;-64
2022/12/30 12:23:44;;;;;;;4.73;1.53;;;;;;;;;;10408618;28;20208;-63
2022/12/30 12:28:45;;;;;;;5.63;2.27;;;;;;;;;;10410061;28;20259;-61
2022/12/30 12:33:56;;;;;;;5.30;1.67;;;;;;;;;;10407570;28;20195;-56
2022/12/30 12:39:06;;;;;;;9.27;2.17;;;;;;;;;;10407911;28;20711;-61
2022/12/30 12:44:13;;;;;;;7.17;2.60;;;;;;;;;;10408416;28;20185;-61
2022/12/30 12:49:16;;;;;;;7.63;2.37;;;;;;;;;;10408821;28;20258;-58
2022/12/30 12:54:33;;;;;;;3.57;1.90;;;;;;;;;;10407852;28;20671;-63
2022/12/30 12:59:33;;;;;;;6.97;2.63;;;;;;;;;;10407503;28;20698;-59
2022/12/30 13:04:52;;;;;;;7.33;2.40;;;;;;;;;;10407519;28;20197;-61
2022/12/30 13:10:07;;;;;;;7.93;3.43;;;;;;;;;;10406222;28;20586;-63
2022/12/30 13:15:28;;;;;;;8.03;3.60;;;;;;;;;;10405743;28;20559;-62
2022/12/30 13:21:04;;;;;;;7.40;3.43;;;;;;;;;;10409305;28;20228;-63
2022/12/30 13:26:04;;;;;;;3.57;2.33;;;;;;;;;;10331867;28;20188;-61
2022/12/30 13:31:23;;;;;;;4.57;1.70;;;;;;;;;;10406297;28;20217;-59
2022/12/30 13:36:37;;;;;;;7.77;2.87;;;;;;;;;;10405916;28;20670;-63
2022/12/30 13:41:47;;;;;;;3.00;1.73;;;;;;;;;;10405115;28;20805;-59
2022/12/30 13:46:49;;;;;;;9.67;2.07;;;;;;;;;;10404857;28;20220;-62
2022/12/30 13:51:54;;;;;;;4.03;1.70;;;;;;;;;;10405047;28;20192;-63
2022/12/30 13:56:55;;;;;;;5.53;1.53;;;;;;;;;;10405713;28;20208;-61
2022/12/30 14:02:14;;;;;;;3.17;1.53;;;;;;;;;;10405044;28;20220;-60
2022/12/30 14:07:33;;;;;;;6.07;1.73;;;;;;;;;;10404175;28;20219;-63
2022/12/30 14:12:38;;;;;;;7.63;1.80;;;;;;;;;;10394982;28;20634;-59
2022/12/30 14:17:38;;;;;;;4.53;1.53;;;;;;;;;;10401292;28;20248;-62
2022/12/30 14:22:39;;;;;;;5.03;1.90;;;;;;;;;;10399279;28;20315;-57
2022/12/30 14:27:41;;;;;;;8.80;1.83;;;;;;;;;;10403189;28;20632;-62
2022/12/30 14:32:42;;;;;;;5.50;1.80;;;;;;;;;;10404105;28;21095;-62
2022/12/30 14:37:42;;;;;;;4.30;1.90;;;;;;;;;;10416342;22;20612;-58
2022/12/30 14:42:51;;;;;;;3.30;2.03;;;;;;;;;;10403471;28;20224;-59
2022/12/30 14:47:51;;;;;;;7.17;2.57;;;;;;;;;;10403581;28;20224;-59
2022/12/30 14:52:58;;;;;;;3.17;1.53;;;;;;;;;;10388518;28;20194;-59
2022/12/30 14:58:00;;;;;;;4.73;1.60;;;;;;;;;;10363637;28;20216;-59
2022/12/30 15:03:01;;;;;;;7.60;2.07;;;;;;;;;;10362695;28;20231;-61
2022/12/30 15:08:09;;;;;;;13.70;6.93;;;;;;;;;;10361469;28;20205;-61
2022/12/30 15:13:14;;;;;;;7.80;2.67;;;;;;;;;;10362758;28;20280;-61
2022/12/30 15:18:29;;;;;;;5.40;1.83;;;;;;;;;;10344339;28;20219;-62
2022/12/30 15:23:29;;;;;;;3.03;1.60;;;;;;;;;;10361245;28;20359;-62
2022/12/30 15:28:30;;;;;;;6.20;1.83;;;;;;;;;;10361073;28;20717;-60
2022/12/30 15:33:30;;;;;;;5.50;1.60;;;;;;;;;;10370085;28;20217;-58
2022/12/30 15:38:30;;;;;;;4.33;1.93;;;;;;;;;;10369320;28;20634;-60
2022/12/30 15:43:32;;;;;;;8.03;2.60;;;;;;;;;;10369181;28;20216;-62
2022/12/30 15:48:33;;;;;;;5.87;1.93;;;;;;;;;;10348416;28;20238;-60
2022/12/30 15:53:34;;;;;;;9.27;2.30;;;;;;;;;;10329004;28;20209;-59
2022/12/30 15:58:39;;;;;;;2.10;1.30;;;;;;;;;;10352906;28;20629;-58
2022/12/30 16:03:46;;;;;;;6.33;2.17;;;;;;;;;;10368701;28;20278;-60
2022/12/30 16:08:46;;;;;;;1.90;1.50;;;;;;;;;;10367345;28;20209;-60
2022/12/30 16:13:47;;;;;;;5.27;1.97;;;;;;;;;;10367755;28;20243;-59
2022/12/30 16:19:13;;;;;;;3.47;1.80;;;;;;;;;;10369405;28;20302;-60
2022/12/30 16:24:15;;;;;;;2.70;1.53;;;;;;;;;;10363926;28;20233;-58
2022/12/30 16:29:16;;;;;;;2.53;1.47;;;;;;;;;;10366646;28;20220;-58
2022/12/30 16:34:16;;;;;;;2.40;1.60;;;;;;;;;;10367939;28;20236;-60
2022/12/30 16:39:17;;;;;;;5.27;1.70;;;;;;;;;;10367594;28;20679;-61
2022/12/30 16:44:19;;;;;;;6.30;2.00;;;;;;;;;;10366294;28;20489;-62
2022/12/30 16:49:20;;;;;;;8.27;4.30;;;;;;;;;;10367362;28;20621;-62
2022/12/30 16:54:21;;;;;;;13.90;4.17;;;;;;;;;;10367731;28;20185;-61
2022/12/30 16:59:21;;;;;;;4.50;2.90;;;;;;;;;;10366312;28;20229;-62
2022/12/30 17:04:22;;;;;;;5.80;2.03;;;;;;;;;;10364804;28;20193;-63
2022/12/30 17:14:41;;;;;;;2.53;1.63;;;;;;;;;;10364602;28;20185;-63
2022/12/30 17:19:41;;;;;;;8.15;2.75;;;;;;;;;;10363578;28;20224;-62
2022/12/30 17:24:41;;;;;;;4.87;2.10;;;;;;;;;;10365703;28;20189;-62
2022/12/30 17:29:41;;;;;;;5.57;2.17;;;;;;;;;;10364141;28;20229;-63
2022/12/30 17:34:41;;;;;;;10.07;2.43;;;;;;;;;;10363310;28;20966;-62
2022/12/30 17:39:41;;;;;;;7.23;1.70;;;;;;;;;;10364585;28;20651;-61
2022/12/30 17:44:42;;;;;;;8.17;2.13;;;;;;;;;;10367984;28;20284;-61
2022/12/30 17:49:42;;;;;;;4.23;1.70;;;;;;;;;;10369211;28;20209;-61
2022/12/30 17:54:42;;;;;;;5.27;1.90;;;;;;;;;;10368745;28;20189;-61
2022/12/30 17:59:42;;;;;;;2.80;1.50;;;;;;;;;;10368270;28;20283;-59
2022/12/30 18:04:42;;;;;;;1.83;1.50;;;;;;;;;;10366336;28;20281;-61
2022/12/30 18:09:43;;;;;;;1.93;1.27;;;;;;;;;;10367365;28;20742;-60
2022/12/30 18:14:43;;;;;;;5.87;1.33;;;;;;;;;;10366259;28;20181;-60
2022/12/30 18:19:43;;;;;;;3.03;2.00;;;;;;;;;;10366888;28;20599;-61
2022/12/30 18:24:43;;;;;;;3.67;1.50;;;;;;;;;;10366191;28;20181;-60
2022/12/30 18:29:44;;;;;;;2.90;1.80;;;;;;;;;;10365809;28;20584;-58
2022/12/30 18:34:44;;;;;;;3.63;2.57;;;;;;;;;;10366170;28;20548;-59
2022/12/30 18:39:44;;;;;;;3.03;1.60;;;;;;;;;;10365541;28;20308;-61
2022/12/30 18:44:45;;;;;;;5.00;2.20;;;;;;;;;;10365470;28;20185;-60
2022/12/30 18:49:45;;;;;;;3.40;1.83;;;;;;;;;;10365308;28;20248;-62
2022/12/30 18:54:45;;;;;;;2.13;1.37;;;;;;;;;;10363110;28;20929;-60
2022/12/30 18:59:45;;;;;;;4.37;2.43;;;;;;;;;;10363425;28;20221;-61
2022/12/30 19:04:45;;;;;;;3.97;1.83;;;;;;;;;;10363536;28;20185;-59
2022/12/30 19:09:47;;;;;;;4.20;2.10;;;;;;;;;;10361556;28;20866;-62
2022/12/30 19:14:47;;;;;;;3.17;1.80;;;;;;;;;;10364416;28;20671;-60
2022/12/30 19:19:47;;;;;;;2.63;1.53;;;;;;;;;;10365322;28;20250;-61
2022/12/30 19:24:48;;;;;;;7.43;1.93;;;;;;;;;;10364047;28;20192;-59
2022/12/30 19:29:48;;;;;;;2.23;1.57;;;;;;;;;;10364350;28;20616;-59
2022/12/30 19:34:48;;;;;;;4.37;2.20;;;;;;;;;;10364078;28;20197;-59
2022/12/30 19:39:48;;;;;;;8.27;3.33;;;;;;;;;;10363794;28;20240;-60
2022/12/30 19:44:48;;;;;;;5.77;2.80;;;;;;;;;;10363812;28;20284;-62
2022/12/30 19:49:49;;;;;;;7.40;3.07;;;;;;;;;;10364463;28;20225;-60
2022/12/30 19:54:49;;;;;;;5.70;2.40;;;;;;;;;;10363660;28;20197;-61
2022/12/30 19:59:49;;;;;;;7.23;2.47;;;;;;;;;;10364048;28;20225;-61
2022/12/30 20:04:49;;;;;;;4.07;2.53;;;;;;;;;;10363947;28;20189;-61
2022/12/30 20:09:49;;;;;;;3.67;2.00;;;;;;;;;;10363357;28;20263;-61
2022/12/30 20:14:49;;;;;;;6.27;2.13;;;;;;;;;;10363644;28;20189;-61
2022/12/30 20:19:50;;;;;;;8.93;3.20;;;;;;;;;;10369230;28;20333;-61
2022/12/30 20:24:50;;;;;;;8.07;3.50;;;;;;;;;;10370686;28;20678;-60
2022/12/30 20:29:50;;;;;;;9.77;4.27;;;;;;;;;;10370134;28;20626;-60
2022/12/30 20:34:50;;;;;;;11.47;4.07;;;;;;;;;;10370265;28;20189;-62
2022/12/30 20:39:50;;;;;;;7.20;3.03;;;;;;;;;;10406149;23;20497;-62
2022/12/30 20:44:51;;;;;;;3.93;2.17;;;;;;;;;;10452504;28;20436;-63
2022/12/30 20:49:51;;;;;;;9.83;3.87;;;;;;;;;;10442813;28;20252;-63
2022/12/30 20:54:51;;;;;;;9.57;3.73;;;;;;;;;;10409761;28;20223;-62
2022/12/30 20:59:51;;;;;;;5.60;3.00;;;;;;;;;;10410761;28;20216;-62
2022/12/30 21:04:52;;;;;;;4.03;2.47;;;;;;;;;;10410017;28;20199;-61
2022/12/30 21:09:52;;;;;;;7.20;2.83;;;;;;;;;;10409831;28;20587;-61
2022/12/30 21:14:52;;;;;;;5.53;2.33;;;;;;;;;;10410021;28;20200;-62
2022/12/30 21:19:52;;;;;;;5.07;2.57;;;;;;;;;;10409819;28;20216;-63
2022/12/30 21:24:52;;;;;;;6.03;2.43;;;;;;;;;;10409095;28;20181;-60
2022/12/30 21:29:52;;;;;;;6.17;2.20;;;;;;;;;;10408524;28;20699;-63
2022/12/30 21:34:52;;;;;;;9.77;2.90;;;;;;;;;;10409178;28;20188;-61
2022/12/30 22:06:29;;;;;;;2.83;1.90;;;;;;;;;;10408534;28;20197;-61
2022/12/30 22:11:30;;;;;;;2.27;1.37;;;;;;;;;;10409222;28;20216;-60
2022/12/30 22:16:30;;;;;;;2.07;1.40;;;;;;;;;;10408275;28;20192;-63
2022/12/30 22:21:30;;;;;;;3.47;1.67;;;;;;;;;;10408694;28;20230;-63
2022/12/30 22:26:30;;;;;;;4.38;1.70;;;;;;;;;;10407756;28;20200;-61
2022/12/30 22:31:31;;;;;;;4.17;1.70;;;;;;;;;;10408558;28;20695;-63
2022/12/30 22:36:31;;;;;;;1.73;1.30;;;;;;;;;;10407437;28;20192;-62
2022/12/30 22:41:31;;;;;;;1.93;1.50;;;;;;;;;;10407203;28;20719;-61
2022/12/30 22:46:31;;;;;;;2.80;1.40;;;;;;;;;;10407802;28;20761;-63
2022/12/30 22:51:31;;;;;;;2.23;1.13;;;;;;;;;;10406988;28;20580;-61
2022/12/30 22:56:32;;;;;;;1.40;1.30;;;;;;;;;;10407568;28;20580;-63
2022/12/30 23:01:32;;;;;;;1.70;1.40;;;;;;;;;;10406757;28;20266;-62
2022/12/30 23:06:32;;;;;;;1.80;1.37;;;;;;;;;;10407195;28;20557;-61
2022/12/30 23:11:32;;;;;;;2.03;1.20;;;;;;;;;;10407399;28;20208;-64
2022/12/30 23:16:33;;;;;;;1.55;1.27;;;;;;;;;;10406512;28;20250;-63
2022/12/30 23:21:34;;;;;;;1.97;1.40;;;;;;;;;;10407162;28;20236;-61
2022/12/30 23:26:35;;;;;;;1.37;1.27;;;;;;;;;;10406575;28;20644;-61
2022/12/30 23:31:36;;;;;;;1.87;1.20;;;;;;;;;;10406439;28;20223;-60
2022/12/30 23:36:37;;;;;;;3.43;1.50;;;;;;;;;;10406353;28;20191;-62
2022/12/30 23:41:37;;;;;;;1.50;1.40;;;;;;;;;;10406538;28;20240;-63
2022/12/30 23:46:38;;;;;;;1.33;1.20;;;;;;;;;;10405857;28;20183;-62
2022/12/30 23:51:39;;;;;;;1.73;1.20;;;;;;;;;;10409374;28;20213;-63
2022/12/30 23:56:40;;;;;;;1.50;1.30;;;;;;;;;;10414188;28;20196;-63
